DTMB Airport Information

Runway Information
Runway 07 Length 9678 ft width 148 ft
Elevation 8 ft Threshold ft Heading 74
Runway 25 Length 9678 ft Width 148 ft
Elevation 8 ft Threshold ft Heading 254
Airport Frequencies
Type APP Name BOURGUIBA Frequency 119.3 MHZ
Type ATIS Name MONASTIR A Frequency 113.1 MHZ
Type TWR Name BOURGUIBA Frequency 118.3 MHZ
Airport Navaids
Type VOR-DME Name Monastir Frequency 113100 KHZ
Airport Weather Information & NOTAM
ADDS - METARS form results

(0439 UTC 06 December 2022)
Data provider http://aviationweather.gov/metar/data/
 
METAR text: DTMB 060430Z 18005KT 8000 FEW046 13/10 Q1016
Conditions at: DTMB (HABIB BOURGUIBA , TN) observed 0430 UTC 06 December 2022
Temperature: 13.0°C (55°F)
Dewpoint: 10.0°C (50°F) [RH = 82%]
Pressure (altimeter): 30.00 inches Hg (1016.0 mb)
Winds: from the S (180 degrees) at 6 MPH (5 knots; 2.6 m/s)
Visibility: 5 miles ( 8 km)
Ceiling: at least 12,000 feet AGL
Clouds: few clouds at 4600 feet AGL
Weather: no significant weather observed at this time

METAR text: DTMB 060400Z 18003KT 130V230 8000 FEW046 13/10 Q1016
Conditions at: DTMB (HABIB BOURGUIBA , TN) observed 0400 UTC 06 December 2022
Temperature: 13.0°C (55°F)
Dewpoint: 10.0°C (50°F) [RH = 82%]
Pressure (altimeter): 30.00 inches Hg (1016.0 mb)
Winds: from the S (180 degrees) at 3 MPH (3 knots; 1.5 m/s)
Visibility: 5 miles ( 8 km)
Ceiling: at least 12,000 feet AGL
Clouds: few clouds at 4600 feet AGL
Weather: no significant weather observed at this time

Forecast for: DTMB (HABIB BOURGUIBA , TN)
Text: TAF DTMB 052300Z 0600/0624 18003KT 8000 FEW046
Forecast period: 0000 to 0300 UTC 06 December 2022
Forecast type: FROM: standard forecast or significant change
Winds: from the S (180 degrees) at 3 MPH (3 knots; 1.5 m/s)
Visibility: 5 miles (8 km)
Ceiling: at least 12,000 feet AGL
Clouds: few clouds at 4600 feet AGL
Weather: no significant weather forecast for this period
Text: BECMG 0603/0605 18010KT
Forecast period: 0300 UTC 06 December 2022 to 0000 UTC 07 December 2022
Forecast type: BECOMING: Conditions expected to become as follows by 0500 UTC 06 December 2022
Winds: from the S (180 degrees) at 12 MPH (10 knots; 5.1 m/s)
Visibility: 5 miles (8 km)
Ceiling: at least 12,000 feet AGL
Clouds: few clouds at 4600 feet AGL
Weather: no significant weather forecast for this period